| time (UTC) | temp C | wind direction | speed KPH | gust KPH | rain 1hr cm | rain 24hr cm | rain mn cm | humidity % | barometer mb |
| 20260503195005 | 25 | 319 | 3.2 | 8.0 | 0.00 | 0.00 | 0.00 | 54 | 1001.9 |
| 20260503194504 | 25 | 305 | 1.6 | 4.8 | 0.00 | 0.00 | 0.00 | 54 | 1001.9 |
| 20260503193504 | 25 | 271 | 3.2 | 8.0 | 0.00 | 0.00 | 0.00 | 54 | 1002.1 |
| 20260503193004 | 24 | 273 | 3.2 | 4.8 | 0.00 | 0.00 | 0.00 | 56 | 1002.2 |
| 20260503192504 | 24 | 248 | 3.2 | 8.0 | 0.00 | 0.00 | 0.00 | 57 | 1002.2 |
| 20260503192004 | 25 | 268 | 3.2 | 8.0 | 0.00 | 0.00 | 0.00 | 55 | 1002.3 |
| 20260503191504 | 25 | 285 | 3.2 | 4.8 | 0.00 | 0.00 | 0.00 | 55 | 1002.3 |
| 20260503191004 | 25 | 331 | 3.2 | 8.0 | 0.00 | 0.00 | 0.00 | 55 | 1002.4 |
| 20260503190504 | 24 | 288 | 3.2 | 8.0 | 0.00 | 0.00 | 0.00 | 55 | 1002.4 |
| 20260503185504 | 22 | 256 | 3.2 | 8.0 | 0.00 | 0.00 | 0.00 | 57 | 1002.5 |
| 20260503184504 | 22 | 281 | 3.2 | 8.0 | 0.00 | 0.00 | 0.00 | 60 | 1002.6 |
| 20260503184004 | 22 | 273 | 3.2 | 8.0 | 0.00 | 0.00 | 0.00 | 60 | 1002.7 |
| 20260503183503 | 22 | 255 | 3.2 | 8.0 | 0.00 | 0.00 | 0.00 | 59 | 1002.8 |
| 20260503183004 | 22 | 333 | 3.2 | 8.0 | 0.00 | 0.00 | 0.00 | 60 | 1002.8 |
| 20260503182004 | 22 | 265 | 3.2 | 4.8 | 0.00 | 0.00 | 0.00 | 62 | 1002.9 |
| 20260503181006 | 21 | 23 | 1.6 | 4.8 | 0.00 | 0.00 | 0.00 | 62 | 1002.9 |
| 20260503180505 | 22 | 308 | 1.6 | 11.3 | 0.00 | 0.00 | 0.00 | 61 | 1003.0 |
| 20260503180006 | 21 | 358 | 3.2 | 4.8 | 0.00 | 0.00 | 0.00 | 61 | 1003.0 |
| 20260503175505 | 21 | 351 | 3.2 | 4.8 | 0.00 | 0.00 | 0.00 | 62 | 1003.1 |
| 20260503175006 | 21 | 275 | 3.2 | 8.0 | 0.00 | 0.00 | 0.00 | 64 | 1003.2 |
| 20260503174506 | 21 | 38 | 1.6 | 8.0 | 0.00 | 0.00 | 0.00 | 65 | 1003.1 |
| 20260503173506 | 20 | 287 | 3.2 | 4.8 | 0.00 | 0.00 | 0.00 | 66 | 1003.2 |
| 20260503171505 | 19 | 260 | 3.2 | 8.0 | 0.00 | 0.00 | 0.00 | 72 | 1003.3 |
| 20260503171005 | 19 | 240 | 3.2 | 8.0 | 0.00 | 0.00 | 0.00 | 71 | 1003.3 |
| 20260503170505 | 19 | 245 | 1.6 | 4.8 | 0.00 | 0.00 | 0.00 | 71 | 1003.4 |
| 20260503151005 | 12 | 258 | 1.6 | 3.2 | 0.00 | 0.00 | 0.00 | 87 | 1003.6 |
| 20260503150505 | 12 | 19 | 1.6 | 3.2 | 0.00 | 0.00 | 0.00 | 89 | 1003.7 |
| 20260503131005 | 10 | 257 | 0.0 | 1.6 | 0.00 | 0.00 | 0.00 | 97 | 1003.2 |
| 20260503090506 | 11 | 283 | 0.0 | 1.6 | 0.00 | 0.00 | 0.00 | 91 | 1003.6 |
| 20260503081505 | 12 | 258 | 0.0 | 1.6 | 0.00 | 0.00 | 0.00 | 87 | 1003.7 |
| 20260503080505 | 12 | 326 | 0.0 | 1.6 | 0.00 | 0.00 | 0.00 | 87 | 1003.6 |
| 20260503072505 | 12 | 282 | 0.0 | 1.6 | 0.00 | 0.00 | 0.00 | 84 | 1003.6 |
| 20260503072005 | 12 | 270 | 0.0 | 1.6 | 0.00 | 0.00 | 0.00 | 84 | 1003.6 |
| 20260503071505 | 12 | 288 | 0.0 | 1.6 | 0.00 | 0.00 | 0.00 | 83 | 1003.6 |
| 20260503071005 | 12 | 280 | 0.0 | 0.0 | 0.00 | 0.00 | 0.00 | 83 | 1003.6 |
| 20260503070505 | 12 | 280 | 0.0 | 0.0 | 0.00 | 0.00 | 0.00 | 83 | 1003.5 |
| 20260503054504 | 14 | 61 | 0.0 | 0.0 | 0.00 | 0.03 | 0.00 | 77 | 1003.3 |
| 20260503053504 | 14 | 61 | 0.0 | 1.6 | 0.00 | 0.03 | 0.00 | 76 | 1003.3 |
| 20260503053004 | 14 | 284 | 0.0 | 1.6 | 0.00 | 0.03 | 0.00 | 76 | 1003.3 |
| 20260503052505 | 15 | 71 | 0.0 | 1.6 | 0.00 | 0.03 | 0.00 | 76 | 1003.2 |
| 20260503052005 | 15 | 356 | 0.0 | 1.6 | 0.00 | 0.03 | 0.00 | 73 | 1003.2 |
| 20260503051005 | 15 | 314 | 1.6 | 3.2 | 0.00 | 0.03 | 0.00 | 74 | 1003.1 |
| 20260503050004 | 15 | 304 | 1.6 | 3.2 | 0.00 | 0.03 | 0.00 | 73 | 1003.0 |
| 20260503045504 | 15 | 281 | 0.0 | 1.6 | 0.00 | 0.03 | 0.00 | 73 | 1003.0 |
| 20260503045005 | 15 | 252 | 0.0 | 3.2 | 0.00 | 0.03 | 0.00 | 73 | 1002.9 |
| 20260503044505 | 15 | 285 | 0.0 | 3.2 | 0.00 | 0.03 | 0.00 | 72 | 1002.9 |
| 20260503044004 | 15 | 262 | 0.0 | 3.2 | 0.00 | 0.03 | 0.00 | 72 | 1002.8 |
| 20260503043504 | 16 | 330 | 0.0 | 3.2 | 0.00 | 0.03 | 0.00 | 72 | 1002.8 |
| 20260503043004 | 16 | 261 | 1.6 | 3.2 | 0.00 | 0.03 | 0.00 | 72 | 1002.8 |
| 20260503042505 | 16 | 309 | 1.6 | 4.8 | 0.00 | 0.03 | 0.00 | 71 | 1002.7 |
| 20260503041504 | 16 | 267 | 0.0 | 3.2 | 0.00 | 0.03 | 0.00 | 71 | 1002.5 |
| 20260503041005 | 16 | 277 | 1.6 | 3.2 | 0.00 | 0.03 | 0.00 | 70 | 1002.5 |
| 20260503035504 | 17 | 268 | 0.0 | 4.8 | 0.00 | 0.03 | 0.00 | 70 | 1002.4 |
| 20260503035004 | 17 | 295 | 0.0 | 3.2 | 0.00 | 0.03 | 0.00 | 67 | 1002.3 |
| 20260503034504 | 17 | 301 | 0.0 | 3.2 | 0.00 | 0.03 | 0.00 | 68 | 1002.2 |
| 20260503034004 | 17 | 291 | 1.6 | 8.0 | 0.00 | 0.03 | 0.00 | 66 | 1002.2 |
| 20260503033505 | 18 | 322 | 0.0 | 3.2 | 0.00 | 0.03 | 0.00 | 67 | 1002.1 |
| 20260503033004 | 18 | 334 | 0.0 | 1.6 | 0.00 | 0.05 | 0.00 | 67 | 1002.0 |
| 20260503032504 | 18 | 302 | 0.0 | 1.6 | 0.00 | 0.05 | 0.00 | 65 | 1002.0 |
| 20260503032005 | 18 | 285 | 1.6 | 4.8 | 0.00 | 0.05 | 0.00 | 63 | 1002.0 |
| 20260503031504 | 18 | 291 | 1.6 | 4.8 | 0.00 | 0.05 | 0.00 | 61 | 1002.0 |
| 20260503031004 | 19 | 254 | 1.6 | 4.8 | 0.00 | 0.05 | 0.00 | 62 | 1001.9 |
| 20260503030504 | 19 | 252 | 1.6 | 4.8 | 0.00 | 0.05 | 0.00 | 62 | 1001.9 |
| 20260503025504 | 20 | 237 | 1.6 | 4.8 | 0.00 | 0.05 | 0.00 | 62 | 1001.8 |
| 20260503025004 | 20 | 251 | 1.6 | 4.8 | 0.00 | 0.05 | 0.00 | 60 | 1001.8 |
| 20260503024004 | 20 | 291 | 1.6 | 4.8 | 0.00 | 0.05 | 0.00 | 59 | 1001.7 |
| 20260503023504 | 20 | 249 | 1.6 | 4.8 | 0.00 | 0.05 | 0.00 | 60 | 1001.7 |
| 20260503023004 | 21 | 224 | 1.6 | 4.8 | 0.00 | 0.05 | 0.00 | 57 | 1001.7 |
| 20260503022003 | 21 | 276 | 1.6 | 4.8 | 0.00 | 0.05 | 0.00 | 56 | 1001.7 |
| 20260503020504 | 22 | 302 | 1.6 | 4.8 | 0.00 | 0.05 | 0.00 | 54 | 1001.8 |
| 20260503020004 | 22 | 49 | 1.6 | 8.0 | 0.00 | 0.05 | 0.00 | 53 | 1001.8 |
| 20260503015504 | 22 | 313 | 0.0 | 8.0 | 0.00 | 0.05 | 0.00 | 52 | 1001.9 |
| 20260503015004 | 23 | 278 | 1.6 | 4.8 | 0.00 | 0.05 | 0.00 | 53 | 1001.9 |
| 20260503014503 | 23 | 262 | 1.6 | 3.2 | 0.00 | 0.05 | 0.00 | 50 | 1002.0 |
| 20260503014004 | 23 | 296 | 1.6 | 8.0 | 0.00 | 0.05 | 0.00 | 50 | 1002.0 |
| 20260503013503 | 23 | 296 | 1.6 | 4.8 | 0.00 | 0.05 | 0.00 | 51 | 1002.0 |
| 20260503013004 | 23 | 277 | 1.6 | 9.7 | 0.00 | 0.05 | 0.00 | 51 | 1002.0 |
| 20260503012504 | 23 | 250 | 1.6 | 4.8 | 0.00 | 0.05 | 0.00 | 50 | 1002.1 |
| 20260503012004 | 23 | 334 | 1.6 | 9.7 | 0.00 | 0.05 | 0.00 | 50 | 1002.1 |
| 20260503011504 | 24 | 283 | 3.2 | 9.7 | 0.00 | 0.05 | 0.00 | 50 | 1002.1 |
| 20260503011004 | 23 | 295 | 3.2 | 8.0 | 0.00 | 0.05 | 0.00 | 50 | 1002.2 |
| 20260503010503 | 23 | 279 | 3.2 | 8.0 | 0.00 | 0.05 | 0.00 | 50 | 1002.2 |
| 20260503010004 | 23 | 274 | 3.2 | 11.3 | 0.00 | 0.05 | 0.00 | 50 | 1002.2 |
| 20260503005504 | 23 | 312 | 1.6 | 8.0 | 0.00 | 0.05 | 0.00 | 50 | 1002.2 |
| 20260503004004 | 23 | 288 | 3.2 | 11.3 | 0.00 | 0.05 | 0.00 | 49 | 1002.3 |
| 20260503003504 | 23 | 252 | 1.6 | 9.7 | 0.00 | 0.05 | 0.00 | 48 | 1002.2 |
| 20260503002503 | 23 | 356 | 3.2 | 14.5 | 0.00 | 0.05 | 0.00 | 49 | 1002.3 |
| 20260503002003 | 23 | 311 | 3.2 | 8.0 | 0.00 | 0.05 | 0.00 | 49 | 1002.3 |
| 20260503001004 | 23 | 289 | 4.8 | 14.5 | 0.00 | 0.05 | 0.00 | 51 | 1002.4 |
| 20260503000504 | 23 | 329 | 3.2 | 12.9 | 0.00 | 0.05 | 0.00 | 52 | 1002.4 |
| 20260503000005 | 23 | 242 | 4.8 | 14.5 | 0.00 | 0.05 | 0.00 | 52 | 1002.5 |
| 20260502235505 | 23 | 337 | 3.2 | 8.0 | 0.00 | 0.05 | 0.00 | 52 | 1002.6 |
| 20260502235005 | 23 | 284 | 3.2 | 9.7 | 0.00 | 0.05 | 0.00 | 53 | 1002.6 |
| 20260502234505 | 23 | 329 | 4.8 | 12.9 | 0.00 | 0.05 | 0.00 | 51 | 1002.5 |
| 20260502233506 | 23 | 252 | 3.2 | 9.7 | 0.00 | 0.05 | 0.00 | 52 | 1002.8 |
| 20260502232506 | 23 | 312 | 4.8 | 11.3 | 0.00 | 0.05 | 0.00 | 53 | 1002.9 |
| 20260502232005 | 24 | 225 | 4.8 | 11.3 | 0.00 | 0.05 | 0.00 | 52 | 1002.9 |
| 20260502231506 | 23 | 326 | 3.2 | 8.0 | 0.00 | 0.05 | 0.00 | 51 | 1003.0 |
| 20260502231005 | 23 | 267 | 3.2 | 9.7 | 0.00 | 0.05 | 0.00 | 53 | 1003.0 |
| 20260502230506 | 23 | 257 | 3.2 | 9.7 | 0.00 | 0.05 | 0.00 | 54 | 1003.2 |
| 20260502230005 | 23 | 309 | 4.8 | 9.7 | 0.00 | 0.05 | 0.00 | 52 | 1003.1 |
| 20260502225506 | 23 | 254 | 1.6 | 9.7 | 0.00 | 0.05 | 0.00 | 53 | 1003.2 |
| 20260502224505 | 23 | 261 | 4.8 | 11.3 | 0.00 | 0.05 | 0.00 | 54 | 1003.3 |
| 20260502224006 | 23 | 276 | 3.2 | 8.0 | 0.00 | 0.05 | 0.00 | 54 | 1003.4 |
| 20260502223505 | 23 | 276 | 3.2 | 8.0 | 0.00 | 0.05 | 0.00 | 55 | 1003.4 |
| 20260502223006 | 22 | 41 | 3.2 | 11.3 | 0.00 | 0.05 | 0.00 | 57 | 1003.5 |
| 20260502222507 | 22 | 289 | 3.2 | 11.3 | 0.00 | 0.05 | 0.00 | 58 | 1003.8 |
| 20260502221006 | 22 | 34 | 3.2 | 9.7 | 0.00 | 0.05 | 0.00 | 59 | 1003.7 |
| 20260502220005 | 23 | 246 | 4.8 | 11.3 | 0.00 | 0.05 | 0.00 | 58 | 1003.8 |
| 20260502215505 | 23 | 270 | 3.2 | 8.0 | 0.00 | 0.05 | 0.00 | 59 | 1003.8 |
| 20260502215005 | 23 | 251 | 1.6 | 9.7 | 0.00 | 0.05 | 0.00 | 59 | 1004.0 |
| 20260502214505 | 23 | 311 | 3.2 | 11.3 | 0.00 | 0.05 | 0.00 | 61 | 1003.9 |
| 20260502214005 | 23 | 113 | 3.2 | 9.7 | 0.00 | 0.05 | 0.00 | 61 | 1004.0 |
| 20260502213506 | 23 | 267 | 3.2 | 9.7 | 0.00 | 0.05 | 0.00 | 60 | 1004.0 |
| 20260502213005 | 23 | 299 | 3.2 | 9.7 | 0.00 | 0.05 | 0.00 | 60 | 1004.1 |
| 20260502212506 | 23 | 315 | 1.6 | 8.0 | 0.00 | 0.05 | 0.00 | 60 | 1004.2 |
| 20260502212005 | 23 | 250 | 4.8 | 11.3 | 0.00 | 0.05 | 0.00 | 59 | 1004.2 |
| 20260502211506 | 23 | 288 | 3.2 | 8.0 | 0.00 | 0.05 | 0.00 | 60 | 1004.2 |
| 20260502211005 | 22 | 7 | 3.2 | 11.3 | 0.00 | 0.05 | 0.00 | 61 | 1004.3 |
| 20260502210505 | 22 | 252 | 3.2 | 9.7 | 0.00 | 0.05 | 0.00 | 61 | 1004.3 |
| 20260502210005 | 22 | 260 | 3.2 | 9.7 | 0.00 | 0.05 | 0.00 | 62 | 1004.3 |
| 20260502205505 | 22 | 264 | 3.2 | 8.0 | 0.00 | 0.05 | 0.00 | 61 | 1004.4 |
| 20260502205005 | 22 | 243 | 3.2 | 9.7 | 0.00 | 0.05 | 0.00 | 62 | 1004.4 |
| 20260502204504 | 22 | 253 | 1.6 | 12.9 | 0.00 | 0.05 | 0.00 | 62 | 1004.4 |
| 20260502204005 | 22 | 2 | 3.2 | 11.3 | 0.00 | 0.05 | 0.00 | 62 | 1004.4 |
| 20260502203504 | 22 | 270 | 1.6 | 11.3 | 0.00 | 0.05 | 0.00 | 62 | 1004.4 |
| 20260502203005 | 21 | 281 | 3.2 | 12.9 | 0.00 | 0.05 | 0.00 | 65 | 1004.4 |
| 20260502202504 | 21 | 256 | 4.8 | 9.7 | 0.00 | 0.05 | 0.00 | 64 | 1004.5 |
| 20260502202005 | 21 | 258 | 4.8 | 12.9 | 0.00 | 0.05 | 0.00 | 65 | 1004.5 |
| 20260502201505 | 21 | 288 | 3.2 | 8.0 | 0.00 | 0.05 | 0.00 | 65 | 1004.5 |
| 20260502201004 | 21 | 263 | 3.2 | 9.7 | 0.00 | 0.05 | 0.00 | 64 | 1004.6 |
| 20260502200505 | 21 | 280 | 1.6 | 9.7 | 0.00 | 0.05 | 0.00 | 65 | 1004.8 |
| 20260502200004 | 21 | 24 | 3.2 | 14.5 | 0.00 | 0.05 | 0.00 | 65 | 1004.7 |
| 20260502195505 | 21 | 227 | 3.2 | 9.7 | 0.00 | 0.05 | 0.00 | 64 | 1004.8 |